sensor_id;sensor_type;location;lat;lon;timestamp;pressure;altitude;pressure_sealevel;temperature
48894;BMP280;34710;35.798;139.446;2023-02-01T00:01:23;100726.62;;;12.18
48894;BMP280;34710;35.798;139.446;2023-02-01T00:03:51;100731.55;;;10.14
48894;BMP280;34710;35.798;139.446;2023-02-01T00:06:21;100735.19;;;10.04
48894;BMP280;34710;35.798;139.446;2023-02-01T00:08:52;100738.21;;;11.00
48894;BMP280;34710;35.798;139.446;2023-02-01T00:11:23;100737.63;;;8.62
48894;BMP280;34710;35.798;139.446;2023-02-01T00:13:53;100740.94;;;8.88
48894;BMP280;34710;35.798;139.446;2023-02-01T00:16:23;100733.82;;;10.41
48894;BMP280;34710;35.798;139.446;2023-02-01T00:18:56;100717.56;;;9.85
48894;BMP280;34710;35.798;139.446;2023-02-01T00:21:26;100719.67;;;8.33
48894;BMP280;34710;35.798;139.446;2023-02-01T00:23:56;100718.45;;;8.70
48894;BMP280;34710;35.798;139.446;2023-02-01T00:26:31;100709.26;;;9.68
48894;BMP280;34710;35.798;139.446;2023-02-01T00:29:01;100708.34;;;10.26
48894;BMP280;34710;35.798;139.446;2023-02-01T00:31:31;100701.84;;;9.79
48894;BMP280;34710;35.798;139.446;2023-02-01T00:34:01;100687.07;;;10.58
48894;BMP280;34710;35.798;139.446;2023-02-01T00:36:31;100682.22;;;11.45
48894;BMP280;34710;35.798;139.446;2023-02-01T00:39:00;100679.12;;;11.94
48894;BMP280;34710;35.798;139.446;2023-02-01T00:41:29;100681.01;;;12.40
48894;BMP280;34710;35.798;139.446;2023-02-01T00:43:58;100679.89;;;13.03
48894;BMP280;34710;35.798;139.446;2023-02-01T00:46:28;100667.34;;;11.61
48894;BMP280;34710;35.798;139.446;2023-02-01T00:48:57;100660.67;;;10.82
48894;BMP280;34710;35.798;139.446;2023-02-01T00:51:29;100652.15;;;11.66
48894;BMP280;34710;35.798;139.446;2023-02-01T00:54:00;100652.46;;;10.77
48894;BMP280;34710;35.798;139.446;2023-02-01T00:56:29;100649.37;;;10.51
48894;BMP280;34710;35.798;139.446;2023-02-01T00:58:58;100639.07;;;10.90
48894;BMP280;34710;35.798;139.446;2023-02-01T01:01:28;100636.79;;;11.90
48894;BMP280;34710;35.798;139.446;2023-02-01T01:03:59;100627.01;;;14.72
48894;BMP280;34710;35.798;139.446;2023-02-01T01:06:29;100627.59;;;14.95
48894;BMP280;34710;35.798;139.446;2023-02-01T01:09:00;100623.01;;;11.89
48894;BMP280;34710;35.798;139.446;2023-02-01T01:11:31;100614.55;;;14.12
48894;BMP280;34710;35.798;139.446;2023-02-01T01:14:02;100601.05;;;13.04
48894;BMP280;34710;35.798;139.446;2023-02-01T01:16:33;100590.20;;;12.80
48894;BMP280;34710;35.798;139.446;2023-02-01T01:19:03;100587.12;;;13.90
48894;BMP280;34710;35.798;139.446;2023-02-01T01:21:32;100584.88;;;13.51
48894;BMP280;34710;35.798;139.446;2023-02-01T01:24:02;100576.60;;;14.84
48894;BMP280;34710;35.798;139.446;2023-02-01T01:26:32;100575.24;;;15.52
48894;BMP280;34710;35.798;139.446;2023-02-01T01:29:01;100573.40;;;14.49
48894;BMP280;34710;35.798;139.446;2023-02-01T01:31:32;100568.17;;;12.18
48894;BMP280;34710;35.798;139.446;2023-02-01T01:34:03;100559.79;;;12.40
48894;BMP280;34710;35.798;139.446;2023-02-01T01:36:32;100553.11;;;11.82
48894;BMP280;34710;35.798;139.446;2023-02-01T01:39:01;100541.50;;;12.90
48894;BMP280;34710;35.798;139.446;2023-02-01T01:41:31;100537.89;;;14.05
48894;BMP280;34710;35.798;139.446;2023-02-01T01:44:03;100534.97;;;13.08
48894;BMP280;34710;35.798;139.446;2023-02-01T01:46:35;100520.28;;;15.85
48894;BMP280;34710;35.798;139.446;2023-02-01T01:49:09;100518.12;;;12.12
48894;BMP280;34710;35.798;139.446;2023-02-01T01:51:44;100498.00;;;13.18
48894;BMP280;34710;35.798;139.446;2023-02-01T01:54:19;100483.99;;;14.34
48894;BMP280;34710;35.798;139.446;2023-02-01T01:56:51;100483.54;;;13.94
48894;BMP280;34710;35.798;139.446;2023-02-01T01:59:22;100482.55;;;14.48
48894;BMP280;34710;35.798;139.446;2023-02-01T02:01:53;100471.49;;;17.46
48894;BMP280;34710;35.798;139.446;2023-02-01T02:04:25;100461.21;;;18.72
48894;BMP280;34710;35.798;139.446;2023-02-01T02:06:59;100447.26;;;19.50
48894;BMP280;34710;35.798;139.446;2023-02-01T02:09:29;100440.94;;;17.33
48894;BMP280;34710;35.798;139.446;2023-02-01T02:11:58;100420.75;;;19.73
48894;BMP280;34710;35.798;139.446;2023-02-01T02:14:28;100408.91;;;21.01
48894;BMP280;34710;35.798;139.446;2023-02-01T02:17:06;100397.98;;;21.98
48894;BMP280;34710;35.798;139.446;2023-02-01T02:20:14;100385.24;;;22.53
48894;BMP280;34710;35.798;139.446;2023-02-01T02:23:25;100369.61;;;23.37
48894;BMP280;34710;35.798;139.446;2023-02-01T02:26:20;100353.59;;;24.30
48894;BMP280;34710;35.798;139.446;2023-02-01T02:29:11;100342.03;;;22.69
48894;BMP280;34710;35.798;139.446;2023-02-01T02:32:01;100327.62;;;24.20
48894;BMP280;34710;35.798;139.446;2023-02-01T02:34:40;100327.95;;;23.22
48894;BMP280;34710;35.798;139.446;2023-02-01T02:37:21;100324.60;;;23.60
48894;BMP280;34710;35.798;139.446;2023-02-01T02:39:57;100321.93;;;19.94
48894;BMP280;34710;35.798;139.446;2023-02-01T02:42:38;100316.95;;;22.17
48894;BMP280;34710;35.798;139.446;2023-02-01T02:45:12;100311.44;;;19.34
48894;BMP280;34710;35.798;139.446;2023-02-01T02:47:50;100300.84;;;21.56
48894;BMP280;34710;35.798;139.446;2023-02-01T02:50:26;100280.81;;;23.22
48894;BMP280;34710;35.798;139.446;2023-02-01T02:53:01;100277.85;;;23.98
48894;BMP280;34710;35.798;139.446;2023-02-01T02:55:34;100270.69;;;24.38
48894;BMP280;34710;35.798;139.446;2023-02-01T02:58:06;100266.42;;;23.24
48894;BMP280;34710;35.798;139.446;2023-02-01T03:00:36;100259.16;;;23.44
48894;BMP280;34710;35.798;139.446;2023-02-01T03:03:06;100247.49;;;22.04
48894;BMP280;34710;35.798;139.446;2023-02-01T03:05:44;100242.79;;;19.58
48894;BMP280;34710;35.798;139.446;2023-02-01T03:08:14;100237.74;;;17.62
48894;BMP280;34710;35.798;139.446;2023-02-01T03:10:51;100238.91;;;17.28
48894;BMP280;34710;35.798;139.446;2023-02-01T03:13:28;100234.15;;;17.10
48894;BMP280;34710;35.798;139.446;2023-02-01T03:16:04;100220.00;;;17.16
48894;BMP280;34710;35.798;139.446;2023-02-01T03:18:41;100220.43;;;16.63
48894;BMP280;34710;35.798;139.446;2023-02-01T03:21:18;100204.98;;;17.25
48894;BMP280;34710;35.798;139.446;2023-02-01T03:23:50;100193.65;;;18.70
48894;BMP280;34710;35.798;139.446;2023-02-01T03:26:21;100178.92;;;18.92
48894;BMP280;34710;35.798;139.446;2023-02-01T03:28:57;100166.34;;;16.89
48894;BMP280;34710;35.798;139.446;2023-02-01T03:31:29;100171.83;;;15.91
48894;BMP280;34710;35.798;139.446;2023-02-01T03:33:59;100158.85;;;16.09
48894;BMP280;34710;35.798;139.446;2023-02-01T03:36:32;100148.69;;;15.13
48894;BMP280;34710;35.798;139.446;2023-02-01T03:39:07;100127.64;;;17.25
48894;BMP280;34710;35.798;139.446;2023-02-01T03:41:42;100118.66;;;16.40
48894;BMP280;34710;35.798;139.446;2023-02-01T03:44:16;100105.63;;;16.61
48894;BMP280;34710;35.798;139.446;2023-02-01T03:46:51;100108.55;;;14.68
48894;BMP280;34710;35.798;139.446;2023-02-01T03:49:25;100097.68;;;15.21
48894;BMP280;34710;35.798;139.446;2023-02-01T03:51:57;100078.92;;;16.59
48894;BMP280;34710;35.798;139.446;2023-02-01T03:54:28;100072.25;;;16.31
48894;BMP280;34710;35.798;139.446;2023-02-01T03:56:59;100060.68;;;16.03
48894;BMP280;34710;35.798;139.446;2023-02-01T03:59:31;100052.60;;;16.50
48894;BMP280;34710;35.798;139.446;2023-02-01T04:02:01;100047.17;;;15.18
48894;BMP280;34710;35.798;139.446;2023-02-01T04:04:30;100029.23;;;16.13
48894;BMP280;34710;35.798;139.446;2023-02-01T04:07:00;100026.42;;;15.53
48894;BMP280;34710;35.798;139.446;2023-02-01T04:09:29;100018.40;;;15.00
48894;BMP280;34710;35.798;139.446;2023-02-01T04:11:58;100009.83;;;16.54
48894;BMP280;34710;35.798;139.446;2023-02-01T04:14:28;100002.68;;;14.52
48894;BMP280;34710;35.798;139.446;2023-02-01T04:16:57;100002.68;;;16.65
48894;BMP280;34710;35.798;139.446;2023-02-01T04:19:27;99992.21;;;16.74
48894;BMP280;34710;35.798;139.446;2023-02-01T04:21:56;99986.39;;;15.27
48894;BMP280;34710;35.798;139.446;2023-02-01T04:24:25;99987.37;;;14.98
48894;BMP280;34710;35.798;139.446;2023-02-01T04:26:55;99976.21;;;16.23
48894;BMP280;34710;35.798;139.446;2023-02-01T04:29:25;99980.99;;;14.32
48894;BMP280;34710;35.798;139.446;2023-02-01T04:31:54;99975.93;;;13.27
48894;BMP280;34710;35.798;139.446;2023-02-01T04:34:24;99975.87;;;14.27
48894;BMP280;34710;35.798;139.446;2023-02-01T04:36:53;99970.29;;;14.16
48894;BMP280;34710;35.798;139.446;2023-02-01T04:39:23;99965.13;;;12.47
48894;BMP280;34710;35.798;139.446;2023-02-01T04:41:53;99958.80;;;13.32
48894;BMP280;34710;35.798;139.446;2023-02-01T04:44:22;99953.99;;;13.97
48894;BMP280;34710;35.798;139.446;2023-02-01T04:46:52;99950.47;;;13.84
48894;BMP280;34710;35.798;139.446;2023-02-01T04:49:21;99952.35;;;13.36
48894;BMP280;34710;35.798;139.446;2023-02-01T04:51:51;99940.51;;;12.90
48894;BMP280;34710;35.798;139.446;2023-02-01T04:54:20;99932.26;;;13.87
48894;BMP280;34710;35.798;139.446;2023-02-01T04:56:50;99927.07;;;14.74
48894;BMP280;34710;35.798;139.446;2023-02-01T04:59:18;99918.93;;;13.09
48894;BMP280;34710;35.798;139.446;2023-02-01T05:01:47;99909.30;;;12.40
48894;BMP280;34710;35.798;139.446;2023-02-01T05:04:17;99915.96;;;12.81
48894;BMP280;34710;35.798;139.446;2023-02-01T05:06:47;99917.68;;;12.89
48894;BMP280;34710;35.798;139.446;2023-02-01T05:09:16;99906.44;;;12.47
48894;BMP280;34710;35.798;139.446;2023-02-01T05:11:45;99898.79;;;12.35
48894;BMP280;34710;35.798;139.446;2023-02-01T05:14:15;99894.17;;;11.87
48894;BMP280;34710;35.798;139.446;2023-02-01T05:16:45;99895.95;;;12.55
48894;BMP280;34710;35.798;139.446;2023-02-01T05:19:14;99894.97;;;12.40
48894;BMP280;34710;35.798;139.446;2023-02-01T05:21:43;99885.87;;;13.14
48894;BMP280;34710;35.798;139.446;2023-02-01T05:24:12;99883.31;;;14.32
48894;BMP280;34710;35.798;139.446;2023-02-01T05:26:42;99887.80;;;14.51
48894;BMP280;34710;35.798;139.446;2023-02-01T05:29:11;99883.47;;;14.07
48894;BMP280;34710;35.798;139.446;2023-02-01T05:31:42;99876.54;;;15.39
48894;BMP280;34710;35.798;139.446;2023-02-01T05:34:12;99867.78;;;14.43
48894;BMP280;34710;35.798;139.446;2023-02-01T05:36:42;99853.62;;;16.94
48894;BMP280;34710;35.798;139.446;2023-02-01T05:39:11;99835.64;;;16.60
48894;BMP280;34710;35.798;139.446;2023-02-01T05:41:40;99826.85;;;17.25
48894;BMP280;34710;35.798;139.446;2023-02-01T05:44:11;99822.82;;;16.52
48894;BMP280;34710;35.798;139.446;2023-02-01T05:46:40;99819.33;;;15.82
48894;BMP280;34710;35.798;139.446;2023-02-01T05:49:10;99827.33;;;15.67
48894;BMP280;34710;35.798;139.446;2023-02-01T05:51:39;99821.15;;;15.36
48894;BMP280;34710;35.798;139.446;2023-02-01T05:54:09;99821.76;;;15.09
48894;BMP280;34710;35.798;139.446;2023-02-01T05:56:39;99818.41;;;15.32
48894;BMP280;34710;35.798;139.446;2023-02-01T05:59:08;99817.54;;;14.68
48894;BMP280;34710;35.798;139.446;2023-02-01T06:01:38;99821.05;;;15.56
48894;BMP280;34710;35.798;139.446;2023-02-01T06:04:07;99818.22;;;15.05
48894;BMP280;34710;35.798;139.446;2023-02-01T06:06:36;99817.47;;;15.03
48894;BMP280;34710;35.798;139.446;2023-02-01T06:09:06;99815.92;;;14.86
48894;BMP280;34710;35.798;139.446;2023-02-01T06:11:35;99811.53;;;14.82
48894;BMP280;34710;35.798;139.446;2023-02-01T06:14:05;99808.97;;;14.29
48894;BMP280;34710;35.798;139.446;2023-02-01T06:16:35;99808.03;;;14.55
48894;BMP280;34710;35.798;139.446;2023-02-01T06:19:04;99799.10;;;14.57
48894;BMP280;34710;35.798;139.446;2023-02-01T06:21:33;99805.05;;;14.20
48894;BMP280;34710;35.798;139.446;2023-02-01T06:24:03;99795.62;;;14.42
48894;BMP280;34710;35.798;139.446;2023-02-01T06:26:32;99785.97;;;14.59
48894;BMP280;34710;35.798;139.446;2023-02-01T06:29:02;99788.91;;;14.87
48894;BMP280;34710;35.798;139.446;2023-02-01T06:31:31;99791.10;;;13.74
48894;BMP280;34710;35.798;139.446;2023-02-01T06:34:01;99796.39;;;14.39
48894;BMP280;34710;35.798;139.446;2023-02-01T06:36:31;99781.53;;;14.77
48894;BMP280;34710;35.798;139.446;2023-02-01T06:39:00;99795.13;;;13.80
48894;BMP280;34710;35.798;139.446;2023-02-01T06:41:28;99785.64;;;13.76
48894;BMP280;34710;35.798;139.446;2023-02-01T06:43:58;99778.69;;;13.64
48894;BMP280;34710;35.798;139.446;2023-02-01T06:46:28;99774.05;;;14.02
48894;BMP280;34710;35.798;139.446;2023-02-01T06:48:57;99772.74;;;13.48
48894;BMP280;34710;35.798;139.446;2023-02-01T06:51:28;99777.37;;;13.33
48894;BMP280;34710;35.798;139.446;2023-02-01T06:53:57;99780.46;;;13.51
48894;BMP280;34710;35.798;139.446;2023-02-01T06:56:27;99786.14;;;13.50
48894;BMP280;34710;35.798;139.446;2023-02-01T06:58:56;99783.18;;;13.09
48894;BMP280;34710;35.798;139.446;2023-02-01T07:01:26;99783.09;;;13.14
48894;BMP280;34710;35.798;139.446;2023-02-01T07:03:55;99789.34;;;14.02
48894;BMP280;34710;35.798;139.446;2023-02-01T07:06:24;99794.65;;;13.79
48894;BMP280;34710;35.798;139.446;2023-02-01T07:08:54;99799.16;;;12.44
48894;BMP280;34710;35.798;139.446;2023-02-01T07:11:23;99793.56;;;12.95
48894;BMP280;34710;35.798;139.446;2023-02-01T07:13:53;99793.75;;;13.53
48894;BMP280;34710;35.798;139.446;2023-02-01T07:16:21;99782.98;;;13.22
48894;BMP280;34710;35.798;139.446;2023-02-01T07:18:52;99770.97;;;12.31
48894;BMP280;34710;35.798;139.446;2023-02-01T07:21:22;99740.18;;;12.08
48894;BMP280;34710;35.798;139.446;2023-02-01T07:23:51;99728.55;;;11.47
48894;BMP280;34710;35.798;139.446;2023-02-01T07:26:22;99734.05;;;11.98
48894;BMP280;34710;35.798;139.446;2023-02-01T07:28:52;99747.03;;;13.23
48894;BMP280;34710;35.798;139.446;2023-02-01T07:31:21;99753.40;;;12.54
48894;BMP280;34710;35.798;139.446;2023-02-01T07:33:51;99749.17;;;12.77
48894;BMP280;34710;35.798;139.446;2023-02-01T07:36:21;99762.97;;;10.95
48894;BMP280;34710;35.798;139.446;2023-02-01T07:38:51;99775.21;;;11.61
48894;BMP280;34710;35.798;139.446;2023-02-01T07:41:19;99770.82;;;12.31
48894;BMP280;34710;35.798;139.446;2023-02-01T07:43:49;99776.10;;;12.05
48894;BMP280;34710;35.798;139.446;2023-02-01T07:46:21;99776.42;;;11.88
48894;BMP280;34710;35.798;139.446;2023-02-01T07:48:50;99778.03;;;11.68
48894;BMP280;34710;35.798;139.446;2023-02-01T07:51:20;99775.68;;;12.02
48894;BMP280;34710;35.798;139.446;2023-02-01T07:53:49;99775.83;;;12.22
48894;BMP280;34710;35.798;139.446;2023-02-01T07:56:19;99776.43;;;13.01
48894;BMP280;34710;35.798;139.446;2023-02-01T07:58:50;99776.73;;;12.56
48894;BMP280;34710;35.798;139.446;2023-02-01T08:01:21;99778.71;;;12.22
48894;BMP280;34710;35.798;139.446;2023-02-01T08:03:52;99778.76;;;11.63
48894;BMP280;34710;35.798;139.446;2023-02-01T08:06:22;99777.73;;;11.98
48894;BMP280;34710;35.798;139.446;2023-02-01T08:08:53;99770.72;;;12.39
48894;BMP280;34710;35.798;139.446;2023-02-01T08:11:24;99767.04;;;12.32
48894;BMP280;34710;35.798;139.446;2023-02-01T08:13:53;99767.30;;;12.27
48894;BMP280;34710;35.798;139.446;2023-02-01T08:16:23;99762.50;;;12.34
48894;BMP280;34710;35.798;139.446;2023-02-01T08:18:53;99769.31;;;11.55
48894;BMP280;34710;35.798;139.446;2023-02-01T08:21:25;99775.72;;;11.91
48894;BMP280;34710;35.798;139.446;2023-02-01T08:23:55;99776.09;;;11.65
48894;BMP280;34710;35.798;139.446;2023-02-01T08:26:25;99773.23;;;11.01
48894;BMP280;34710;35.798;139.446;2023-02-01T08:28:57;99775.84;;;11.74
48894;BMP280;34710;35.798;139.446;2023-02-01T08:31:28;99777.61;;;11.98
48894;BMP280;34710;35.798;139.446;2023-02-01T08:33:59;99778.97;;;11.94
48894;BMP280;34710;35.798;139.446;2023-02-01T08:36:30;99786.23;;;12.73
48894;BMP280;34710;35.798;139.446;2023-02-01T08:39:00;99785.69;;;11.62
48894;BMP280;34710;35.798;139.446;2023-02-01T08:41:30;99788.42;;;11.55
48894;BMP280;34710;35.798;139.446;2023-02-01T08:44:00;99799.82;;;12.92
48894;BMP280;34710;35.798;139.446;2023-02-01T11:32:58;99806.91;;;12.65
48894;BMP280;34710;35.798;139.446;2023-02-01T11:35:36;99809.16;;;12.88
48894;BMP280;34710;35.798;139.446;2023-02-01T15:33:31;99978.82;;;9.83
48894;BMP280;34710;35.798;139.446;2023-02-01T15:36:16;99979.76;;;10.26
48894;BMP280;34710;35.798;139.446;2023-02-01T16:28:17;100041.27;;;9.26
48894;BMP280;34710;35.798;139.446;2023-02-01T17:00:14;100077.82;;;8.45
48894;BMP280;34710;35.798;139.446;2023-02-01T17:06:02;100079.50;;;8.98
48894;BMP280;34710;35.798;139.446;2023-02-01T17:23:58;100084.17;;;8.38
48894;BMP280;34710;35.798;139.446;2023-02-01T18:08:21;100115.25;;;8.04
48894;BMP280;34710;35.798;139.446;2023-02-01T18:35:41;100161.44;;;7.67
48894;BMP280;34710;35.798;139.446;2023-02-01T18:38:12;100162.69;;;7.56
48894;BMP280;34710;35.798;139.446;2023-02-01T18:40:46;100171.18;;;7.07
48894;BMP280;34710;35.798;139.446;2023-02-01T18:43:16;100167.78;;;7.01
48894;BMP280;34710;35.798;139.446;2023-02-01T18:45:45;100172.10;;;6.83
48894;BMP280;34710;35.798;139.446;2023-02-01T18:48:16;100172.31;;;6.73
48894;BMP280;34710;35.798;139.446;2023-02-01T18:50:45;100173.50;;;6.61
48894;BMP280;34710;35.798;139.446;2023-02-01T18:53:15;100174.11;;;6.76
48894;BMP280;34710;35.798;139.446;2023-02-01T18:55:45;100190.83;;;6.74
48894;BMP280;34710;35.798;139.446;2023-02-01T18:58:14;100192.83;;;7.16
48894;BMP280;34710;35.798;139.446;2023-02-01T19:00:45;100191.63;;;7.00
48894;BMP280;34710;35.798;139.446;2023-02-01T19:03:14;100199.87;;;6.81
48894;BMP280;34710;35.798;139.446;2023-02-01T19:05:43;100203.82;;;6.44
48894;BMP280;34710;35.798;139.446;2023-02-01T19:08:11;100217.21;;;6.41
48894;BMP280;34710;35.798;139.446;2023-02-01T19:10:42;100223.29;;;6.32
48894;BMP280;34710;35.798;139.446;2023-02-01T19:13:12;100229.65;;;6.22
48894;BMP280;34710;35.798;139.446;2023-02-01T19:15:41;100229.74;;;6.91
48894;BMP280;34710;35.798;139.446;2023-02-01T19:18:10;100247.53;;;6.60
48894;BMP280;34710;35.798;139.446;2023-02-01T19:20:39;100253.64;;;6.40
48894;BMP280;34710;35.798;139.446;2023-02-01T19:23:08;100252.15;;;6.51
48894;BMP280;34710;35.798;139.446;2023-02-01T19:25:37;100257.19;;;6.67
48894;BMP280;34710;35.798;139.446;2023-02-01T19:28:05;100264.74;;;6.32
48894;BMP280;34710;35.798;139.446;2023-02-01T19:30:33;100275.95;;;5.75
48894;BMP280;34710;35.798;139.446;2023-02-01T19:33:02;100280.36;;;6.15
48894;BMP280;34710;35.798;139.446;2023-02-01T19:35:31;100287.35;;;5.99
48894;BMP280;34710;35.798;139.446;2023-02-01T19:38:00;100298.46;;;6.14
48894;BMP280;34710;35.798;139.446;2023-02-01T19:40:28;100297.77;;;5.90
48894;BMP280;34710;35.798;139.446;2023-02-01T19:42:57;100307.89;;;5.82
48894;BMP280;34710;35.798;139.446;2023-02-01T19:45:25;100314.75;;;6.29
48894;BMP280;34710;35.798;139.446;2023-02-01T19:47:54;100332.43;;;6.13
48894;BMP280;34710;35.798;139.446;2023-02-01T19:50:22;100325.91;;;6.16
48894;BMP280;34710;35.798;139.446;2023-02-01T19:52:51;100329.70;;;5.61
48894;BMP280;34710;35.798;139.446;2023-02-01T19:55:19;100335.78;;;6.11
48894;BMP280;34710;35.798;139.446;2023-02-01T19:57:48;100337.02;;;5.46
48894;BMP280;34710;35.798;139.446;2023-02-01T20:00:16;100343.12;;;5.73
48894;BMP280;34710;35.798;139.446;2023-02-01T20:02:44;100345.12;;;4.83
48894;BMP280;34710;35.798;139.446;2023-02-01T20:05:13;100352.11;;;5.20
48894;BMP280;34710;35.798;139.446;2023-02-01T20:07:41;100355.34;;;5.44
48894;BMP280;34710;35.798;139.446;2023-02-01T20:10:11;100347.63;;;5.52
48894;BMP280;34710;35.798;139.446;2023-02-01T20:12:39;100357.00;;;4.85
48894;BMP280;34710;35.798;139.446;2023-02-01T20:15:08;100367.36;;;4.42
48894;BMP280;34710;35.798;139.446;2023-02-01T20:17:37;100372.21;;;5.08
48894;BMP280;34710;35.798;139.446;2023-02-01T20:20:06;100379.36;;;4.99
48894;BMP280;34710;35.798;139.446;2023-02-01T20:22:34;100388.55;;;5.16
48894;BMP280;34710;35.798;139.446;2023-02-01T20:25:03;100394.35;;;4.72
48894;BMP280;34710;35.798;139.446;2023-02-01T20:27:32;100404.10;;;4.15
48894;BMP280;34710;35.798;139.446;2023-02-01T20:30:00;100410.94;;;4.44
48894;BMP280;34710;35.798;139.446;2023-02-01T20:32:28;100420.12;;;4.41
48894;BMP280;34710;35.798;139.446;2023-02-01T20:34:57;100428.04;;;4.42
48894;BMP280;34710;35.798;139.446;2023-02-01T20:37:25;100429.81;;;4.70
48894;BMP280;34710;35.798;139.446;2023-02-01T20:39:53;100441.51;;;5.08
48894;BMP280;34710;35.798;139.446;2023-02-01T20:42:22;100437.37;;;4.67
48894;BMP280;34710;35.798;139.446;2023-02-01T20:44:50;100443.95;;;4.53
48894;BMP280;34710;35.798;139.446;2023-02-01T20:47:18;100447.27;;;4.44
48894;BMP280;34710;35.798;139.446;2023-02-01T20:49:47;100442.63;;;4.55
48894;BMP280;34710;35.798;139.446;2023-02-01T20:52:15;100453.89;;;4.04
48894;BMP280;34710;35.798;139.446;2023-02-01T20:54:44;100461.99;;;3.59
48894;BMP280;34710;35.798;139.446;2023-02-01T20:57:12;100464.75;;;4.64
48894;BMP280;34710;35.798;139.446;2023-02-01T20:59:41;100460.51;;;4.02
48894;BMP280;34710;35.798;139.446;2023-02-01T21:02:10;100469.33;;;3.88
48894;BMP280;34710;35.798;139.446;2023-02-01T21:04:39;100472.61;;;3.84
48894;BMP280;34710;35.798;139.446;2023-02-01T21:07:07;100488.62;;;3.72
48894;BMP280;34710;35.798;139.446;2023-02-01T21:09:36;100488.71;;;4.02
48894;BMP280;34710;35.798;139.446;2023-02-01T21:12:05;100504.68;;;3.93
48894;BMP280;34710;35.798;139.446;2023-02-01T21:14:34;100507.82;;;3.63
48894;BMP280;34710;35.798;139.446;2023-02-01T21:17:03;100512.84;;;3.55
48894;BMP280;34710;35.798;139.446;2023-02-01T21:19:31;100514.90;;;3.76
48894;BMP280;34710;35.798;139.446;2023-02-01T21:21:59;100523.21;;;3.43
48894;BMP280;34710;35.798;139.446;2023-02-01T21:24:28;100527.51;;;3.68
48894;BMP280;34710;35.798;139.446;2023-02-01T21:26:56;100533.42;;;3.16
48894;BMP280;34710;35.798;139.446;2023-02-01T21:29:24;100541.84;;;3.56
48894;BMP280;34710;35.798;139.446;2023-02-01T21:31:53;100546.94;;;3.47
48894;BMP280;34710;35.798;139.446;2023-02-01T21:34:21;100548.06;;;3.27
48894;BMP280;34710;35.798;139.446;2023-02-01T21:36:49;100554.83;;;2.83
48894;BMP280;34710;35.798;139.446;2023-02-01T21:39:18;100560.68;;;3.43
48894;BMP280;34710;35.798;139.446;2023-02-01T21:41:46;100565.02;;;3.45
48894;BMP280;34710;35.798;139.446;2023-02-01T21:44:14;100567.98;;;3.13
48894;BMP280;34710;35.798;139.446;2023-02-01T21:46:43;100582.07;;;3.06
48894;BMP280;34710;35.798;139.446;2023-02-01T21:49:12;100571.12;;;2.77
48894;BMP280;34710;35.798;139.446;2023-02-01T21:51:41;100569.41;;;2.83
48894;BMP280;34710;35.798;139.446;2023-02-01T21:54:10;100584.64;;;3.24
48894;BMP280;34710;35.798;139.446;2023-02-01T21:56:40;100581.78;;;3.02
48894;BMP280;34710;35.798;139.446;2023-02-01T21:59:08;100590.43;;;3.18
48894;BMP280;34710;35.798;139.446;2023-02-01T22:01:38;100593.82;;;2.66
48894;BMP280;34710;35.798;139.446;2023-02-01T22:04:07;100601.42;;;3.05
48894;BMP280;34710;35.798;139.446;2023-02-01T22:06:38;100606.82;;;3.49
48894;BMP280;34710;35.798;139.446;2023-02-01T22:09:08;100603.15;;;2.96
48894;BMP280;34710;35.798;139.446;2023-02-01T22:11:40;100613.54;;;2.56
48894;BMP280;34710;35.798;139.446;2023-02-01T22:14:09;100617.88;;;2.53
48894;BMP280;34710;35.798;139.446;2023-02-01T22:16:38;100622.40;;;2.93
48894;BMP280;34710;35.798;139.446;2023-02-01T22:19:06;100619.72;;;3.13
48894;BMP280;34710;35.798;139.446;2023-02-01T22:21:36;100624.78;;;2.81
48894;BMP280;34710;35.798;139.446;2023-02-01T22:24:07;100629.47;;;2.91
48894;BMP280;34710;35.798;139.446;2023-02-01T22:26:37;100635.84;;;2.87
48894;BMP280;34710;35.798;139.446;2023-02-01T22:29:06;100644.89;;;2.19
48894;BMP280;34710;35.798;139.446;2023-02-01T22:31:35;100654.88;;;2.26
48894;BMP280;34710;35.798;139.446;2023-02-01T22:34:03;100642.53;;;2.31
48894;BMP280;34710;35.798;139.446;2023-02-01T22:36:32;100646.80;;;2.64
48894;BMP280;34710;35.798;139.446;2023-02-01T22:39:00;100659.55;;;2.77
48894;BMP280;34710;35.798;139.446;2023-02-01T22:41:29;100666.10;;;2.79
48894;BMP280;34710;35.798;139.446;2023-02-01T22:43:57;100679.32;;;3.49
48894;BMP280;34710;35.798;139.446;2023-02-01T22:46:26;100686.04;;;3.89
48894;BMP280;34710;35.798;139.446;2023-02-01T22:48:54;100687.71;;;2.67
48894;BMP280;34710;35.798;139.446;2023-02-01T22:51:25;100692.49;;;2.92
48894;BMP280;34710;35.798;139.446;2023-02-01T22:53:55;100693.23;;;3.42
48894;BMP280;34710;35.798;139.446;2023-02-01T22:56:25;100689.39;;;4.18
48894;BMP280;34710;35.798;139.446;2023-02-01T22:58:56;100697.64;;;4.15
48894;BMP280;34710;35.798;139.446;2023-02-01T23:01:25;100710.32;;;4.73
48894;BMP280;34710;35.798;139.446;2023-02-01T23:03:57;100705.04;;;4.03
48894;BMP280;34710;35.798;139.446;2023-02-01T23:06:27;100706.90;;;4.61
48894;BMP280;34710;35.798;139.446;2023-02-01T23:08:58;100722.85;;;4.51
48894;BMP280;34710;35.798;139.446;2023-02-01T23:11:27;100724.41;;;4.50
48894;BMP280;34710;35.798;139.446;2023-02-01T23:13:57;100723.89;;;4.83
48894;BMP280;34710;35.798;139.446;2023-02-01T23:16:26;100738.05;;;6.17
48894;BMP280;34710;35.798;139.446;2023-02-01T23:18:56;100743.49;;;6.33
48894;BMP280;34710;35.798;139.446;2023-02-01T23:21:26;100747.85;;;6.34
48894;BMP280;34710;35.798;139.446;2023-02-01T23:23:57;100745.87;;;6.56
48894;BMP280;34710;35.798;139.446;2023-02-01T23:26:29;100746.74;;;6.62